Time;durP1;ratioP1;P1;durP2;ratioP2;P2;SDS_P1;SDS_P2;PMS_P1;PMS_P2;Temp;Humidity;BMP_temperature;BMP_pressure;BME280_temperature;BME280_humidity;BME280_pressure;Samples;Min_cycle;Max_cycle;Signal;HPM_P1;HPM_P2
2021/11/07 00:06:33;;;;;;;10.57;7.10;;;10.00;99.90;;;;;;5017011;28;20697;-94
2021/11/07 00:09:27;;;;;;;10.60;7.97;;;9.90;99.90;;;;;;5016954;28;20419;-94
2021/11/07 00:12:01;;;;;;;14.17;8.17;;;9.80;99.90;;;;;;5016164;28;20413;-84
2021/11/07 00:14:28;;;;;;;13.00;7.03;;;9.70;99.90;;;;;;5015970;28;20420;-88
2021/11/07 00:16:55;;;;;;;10.60;9.10;;;9.70;99.90;;;;;;5015827;28;20416;-81
2021/11/07 00:22:09;;;;;;;10.20;9.00;;;9.50;99.90;;;;;;5015429;28;20420;-94
2021/11/07 00:27:43;;;;;;;10.80;9.70;;;9.50;99.90;;;;;;4936784;29;20461;-90
2021/11/07 00:37:59;;;;;;;12.97;11.67;;;9.40;99.90;;;;;;5015110;28;20459;-94
2021/11/07 00:41:07;;;;;;;14.90;10.20;;;9.40;99.90;;;;;;5015179;28;20885;-88
2021/11/07 00:43:26;;;;;;;10.70;9.67;;;9.40;99.90;;;;;;5011368;28;20421;-94
2021/11/07 00:46:07;;;;;;;9.87;8.87;;;9.40;99.90;;;;;;5008696;28;20494;-88
2021/11/07 00:48:44;;;;;;;9.53;8.53;;;9.40;99.90;;;;;;5035536;28;20471;-93
2021/11/07 01:01:30;;;;;;;10.83;9.07;;;9.40;99.90;;;;;;5015378;28;20414;-93
2021/11/07 01:04:00;;;;;;;11.80;9.73;;;9.40;99.90;;;;;;5014467;28;20427;-87
2021/11/07 01:06:25;;;;;;;10.97;8.77;;;9.40;99.90;;;;;;5015498;28;20463;-87
2021/11/07 01:08:51;;;;;;;9.87;8.87;;;9.40;99.90;;;;;;5015787;28;20428;-94
2021/11/07 01:11:17;;;;;;;11.03;8.40;;;9.40;99.90;;;;;;5014986;28;20187;-96
2021/11/07 01:13:44;;;;;;;9.50;8.43;;;9.40;99.90;;;;;;5036016;28;20184;-95
2021/11/07 01:16:13;;;;;;;11.93;8.80;;;9.40;99.90;;;;;;5043432;28;20183;-87
2021/11/07 01:18:39;;;;;;;11.27;8.37;;;9.40;99.90;;;;;;5045301;28;20408;-92
2021/11/07 01:21:05;;;;;;;9.10;8.20;;;9.40;99.90;;;;;;5037884;28;20430;-89
2021/11/07 01:23:41;;;;;;;8.50;7.63;;;9.40;99.90;;;;;;5037011;28;20908;-82
2021/11/07 01:26:14;;;;;;;11.80;7.90;;;9.50;99.90;;;;;;5038712;28;20209;-93
2021/11/07 01:28:47;;;;;;;7.67;6.97;;;9.50;99.90;;;;;;5021692;28;20521;-88
2021/11/07 01:31:19;;;;;;;9.30;6.90;;;9.50;99.90;;;;;;5038910;28;20419;-90
2021/11/07 01:33:45;;;;;;;7.90;7.10;;;9.50;99.90;;;;;;5046146;28;20411;-86
2021/11/07 01:36:27;;;;;;;7.57;5.47;;;9.50;99.90;;;;;;5047805;28;20436;-82
2021/11/07 01:39:03;;;;;;;5.90;5.07;;;9.50;99.90;;;;;;5046710;28;20395;-84
2021/11/07 01:44:13;;;;;;;7.60;5.17;;;9.50;99.90;;;;;;5048668;28;20417;-87
2021/11/07 01:46:45;;;;;;;7.83;7.03;;;9.50;99.90;;;;;;5031143;28;21019;-92
2021/11/07 01:49:16;;;;;;;7.30;6.33;;;9.50;99.90;;;;;;5027653;28;20467;-80
2021/11/07 01:51:51;;;;;;;7.83;5.27;;;9.60;99.90;;;;;;5050240;28;20465;-80
2021/11/07 01:56:46;;;;;;;5.63;5.13;;;9.60;99.90;;;;;;5044541;28;20439;-87
2021/11/07 01:59:12;;;;;;;7.93;5.53;;;9.60;99.90;;;;;;5046712;28;20457;-92
2021/11/07 02:01:37;;;;;;;9.60;5.83;;;9.60;99.90;;;;;;5026142;28;20423;-93
2021/11/07 02:04:03;;;;;;;7.97;6.40;;;9.70;99.90;;;;;;5043871;28;20170;-85
2021/11/07 02:06:29;;;;;;;7.10;5.07;;;9.70;99.90;;;;;;5047879;28;20250;-79
2021/11/07 02:08:55;;;;;;;5.20;4.57;;;9.70;99.90;;;;;;5032855;28;20177;-80
2021/11/07 02:11:21;;;;;;;5.40;4.77;;;9.70;99.90;;;;;;5056271;28;20654;-90
2021/11/07 02:13:49;;;;;;;5.33;4.67;;;9.60;99.90;;;;;;5052613;28;20162;-96
2021/11/07 02:16:15;;;;;;;6.13;4.93;;;9.60;99.90;;;;;;5048507;28;20428;-95
2021/11/07 02:18:41;;;;;;;7.30;5.77;;;9.60;99.90;;;;;;5046319;28;20420;-95
2021/11/07 02:21:07;;;;;;;7.20;5.67;;;9.60;99.90;;;;;;5044632;28;20412;-96
2021/11/07 02:23:33;;;;;;;5.80;5.20;;;9.70;99.90;;;;;;5048716;28;20283;-91
2021/11/07 02:26:03;;;;;;;6.27;5.27;;;9.70;99.90;;;;;;5056602;28;20203;-96
2021/11/07 02:28:42;;;;;;;6.07;5.47;;;9.70;99.90;;;;;;5052694;28;20435;-91
2021/11/07 02:31:12;;;;;;;7.20;6.00;;;9.70;99.90;;;;;;5052951;28;20440;-96
2021/11/07 02:33:39;;;;;;;6.53;5.60;;;9.70;99.90;;;;;;5051232;28;20412;-94
2021/11/07 02:36:13;;;;;;;7.07;6.37;;;9.70;99.90;;;;;;5051547;28;20430;-92
2021/11/07 02:38:40;;;;;;;6.47;5.87;;;9.70;99.90;;;;;;5034479;28;20610;-89
2021/11/07 02:41:07;;;;;;;7.23;6.30;;;9.70;99.90;;;;;;5053337;28;20409;-94
2021/11/07 02:43:41;;;;;;;7.37;6.67;;;9.70;99.90;;;;;;5081400;22;20473;-94
2021/11/07 02:46:07;;;;;;;8.60;6.07;;;9.70;99.90;;;;;;5091617;28;20468;-91
2021/11/07 02:48:33;;;;;;;9.70;6.57;;;9.70;99.90;;;;;;5094091;28;20443;-88
2021/11/07 02:50:58;;;;;;;6.97;5.43;;;9.70;99.90;;;;;;5073293;28;20232;-87
2021/11/07 02:53:30;;;;;;;6.07;5.47;;;9.70;99.90;;;;;;5073150;28;20217;-95
2021/11/07 02:55:55;;;;;;;8.73;5.50;;;9.70;99.90;;;;;;5076777;28;20168;-95
2021/11/07 02:58:21;;;;;;;5.63;4.67;;;9.70;99.90;;;;;;5073428;28;20479;-91
2021/11/07 03:00:47;;;;;;;5.53;4.67;;;9.80;99.90;;;;;;5073886;28;20157;-89
2021/11/07 03:03:12;;;;;;;5.10;4.07;;;9.80;99.90;;;;;;5075296;28;20191;-86
2021/11/07 03:05:38;;;;;;;5.27;4.43;;;9.80;99.90;;;;;;5068804;28;20219;-95
2021/11/07 03:08:06;;;;;;;5.03;3.73;;;9.80;99.90;;;;;;5071757;28;20168;-89
2021/11/07 03:10:31;;;;;;;5.20;4.30;;;9.80;99.90;;;;;;5068344;28;20169;-81
2021/11/07 03:13:14;;;;;;;5.30;3.77;;;9.80;99.90;;;;;;5071620;28;20415;-95
2021/11/07 03:15:41;;;;;;;4.53;3.40;;;9.80;99.90;;;;;;5068839;28;20173;-95
2021/11/07 03:18:10;;;;;;;4.70;3.90;;;9.80;99.90;;;;;;5075117;28;20794;-93
2021/11/07 03:20:36;;;;;;;4.10;3.20;;;9.70;99.90;;;;;;5076792;22;20452;-85
2021/11/07 03:23:02;;;;;;;5.10;3.83;;;9.80;99.90;;;;;;5035751;28;20451;-87
2021/11/07 03:25:28;;;;;;;4.83;3.73;;;9.70;99.90;;;;;;5030549;23;20491;-83
2021/11/07 03:27:57;;;;;;;3.50;2.93;;;9.70;99.90;;;;;;5093737;28;20502;-96
2021/11/07 03:33:43;;;;;;;4.27;3.50;;;9.80;99.90;;;;;;5030778;28;20500;-92
2021/11/07 03:36:08;;;;;;;4.17;2.50;;;9.80;99.90;;;;;;5084779;28;20421;-95
2021/11/07 03:38:36;;;;;;;2.97;2.60;;;9.80;99.90;;;;;;5086100;28;20437;-93
2021/11/07 03:41:03;;;;;;;7.13;3.10;;;9.70;99.90;;;;;;5088009;28;20227;-96
2021/11/07 03:43:29;;;;;;;3.70;2.90;;;9.70;99.90;;;;;;5070134;28;20448;-85
2021/11/07 03:45:56;;;;;;;3.07;2.60;;;9.70;99.90;;;;;;5085525;28;20481;-93
2021/11/07 03:48:22;;;;;;;2.97;1.67;;;9.70;99.90;;;;;;5085747;28;20426;-91
2021/11/07 03:50:49;;;;;;;3.20;2.53;;;9.60;99.90;;;;;;5091128;28;20459;-91
2021/11/07 03:53:15;;;;;;;2.40;1.80;;;9.60;99.90;;;;;;5102560;22;20493;-83
2021/11/07 03:55:41;;;;;;;4.00;1.87;;;9.60;99.90;;;;;;5071589;28;20485;-92
2021/11/07 03:58:07;;;;;;;2.43;2.20;;;9.60;99.90;;;;;;5093104;28;20419;-82
2021/11/07 04:00:33;;;;;;;2.10;1.60;;;9.70;99.90;;;;;;5077684;28;20207;-92
2021/11/07 04:02:58;;;;;;;2.80;1.60;;;9.60;99.90;;;;;;5095344;28;20425;-95
2021/11/07 04:05:24;;;;;;;2.77;1.40;;;9.60;99.90;;;;;;5096169;28;20450;-84
2021/11/07 04:07:50;;;;;;;2.27;1.57;;;9.60;99.90;;;;;;5110899;22;20207;-86
2021/11/07 04:10:17;;;;;;;3.20;1.27;;;9.60;99.90;;;;;;5097906;28;20465;-87
2021/11/07 04:12:43;;;;;;;2.80;0.80;;;9.50;99.90;;;;;;5096950;28;20415;-81
2021/11/07 04:15:10;;;;;;;1.50;1.00;;;9.50;99.90;;;;;;5098231;28;20410;-86
2021/11/07 04:17:36;;;;;;;1.50;0.83;;;9.50;99.90;;;;;;5092843;28;20449;-96
2021/11/07 04:20:06;;;;;;;2.10;1.17;;;9.50;99.90;;;;;;5100108;22;20532;-81
2021/11/07 04:22:32;;;;;;;3.23;0.80;;;9.50;99.90;;;;;;5092678;28;20429;-84
2021/11/07 04:24:58;;;;;;;0.97;0.47;;;9.50;99.90;;;;;;5088723;28;20479;-93
2021/11/07 04:27:23;;;;;;;1.90;0.70;;;9.40;99.90;;;;;;5066797;28;20201;-91
2021/11/07 04:29:50;;;;;;;1.07;0.70;;;9.40;99.90;;;;;;5088134;28;20183;-84
2021/11/07 04:32:16;;;;;;;2.13;0.83;;;9.40;99.90;;;;;;5087556;28;20179;-87
2021/11/07 04:34:41;;;;;;;1.93;0.50;;;9.40;99.90;;;;;;5099618;22;20485;-77
2021/11/07 04:37:08;;;;;;;2.10;0.80;;;9.30;99.90;;;;;;5076613;28;20409;-78
2021/11/07 04:39:34;;;;;;;1.30;0.30;;;9.20;99.90;;;;;;5090288;28;20410;-90
2021/11/07 04:42:00;;;;;;;2.73;1.03;;;9.30;99.90;;;;;;5078522;28;20414;-89
2021/11/07 04:44:26;;;;;;;4.90;0.97;;;9.40;99.90;;;;;;5078554;28;20428;-94
2021/11/07 04:46:52;;;;;;;2.03;0.80;;;9.40;99.90;;;;;;5078824;28;20438;-92
2021/11/07 04:49:18;;;;;;;5.20;1.33;;;9.40;99.90;;;;;;5079843;28;20410;-94
2021/11/07 04:51:44;;;;;;;3.00;0.37;;;9.40;99.90;;;;;;5078395;28;20419;-87
2021/11/07 04:54:10;;;;;;;1.60;0.47;;;9.30;99.90;;;;;;5063500;28;20497;-95
2021/11/07 04:56:36;;;;;;;2.93;0.50;;;9.20;99.90;;;;;;5065510;28;20172;-93
2021/11/07 04:59:02;;;;;;;5.70;0.30;;;9.10;99.90;;;;;;5064533;28;21005;-90
2021/11/07 05:01:31;;;;;;;2.50;0.33;;;9.10;99.90;;;;;;5081193;28;20186;-93
2021/11/07 05:03:57;;;;;;;1.97;0.50;;;9.10;99.90;;;;;;5064838;28;20425;-95
2021/11/07 05:06:23;;;;;;;6.30;0.77;;;9.10;99.90;;;;;;5084111;28;20569;-89
2021/11/07 05:08:49;;;;;;;2.47;0.73;;;9.10;99.90;;;;;;5085391;28;20168;-79
2021/11/07 05:11:15;;;;;;;2.00;0.57;;;9.30;99.90;;;;;;5084638;28;20419;-95
2021/11/07 05:13:41;;;;;;;4.53;0.93;;;9.30;99.90;;;;;;5086380;28;20411;-88
2021/11/07 05:16:07;;;;;;;1.87;0.53;;;9.40;99.90;;;;;;5084296;28;20421;-96
2021/11/07 05:18:33;;;;;;;4.20;1.23;;;9.40;99.90;;;;;;5093655;28;20433;-79
2021/11/07 05:20:58;;;;;;;7.00;0.70;;;9.40;99.90;;;;;;5095641;28;20430;-80
2021/11/07 05:23:24;;;;;;;2.87;1.03;;;9.40;99.90;;;;;;5149262;22;20237;-80
2021/11/07 05:25:54;;;;;;;2.80;0.73;;;9.40;99.90;;;;;;5093174;28;20203;-82
2021/11/07 05:28:20;;;;;;;6.27;1.67;;;9.50;99.90;;;;;;5092961;28;20274;-88
2021/11/07 05:30:47;;;;;;;4.23;1.70;;;9.50;99.90;;;;;;5075163;28;20424;-86
2021/11/07 05:33:12;;;;;;;1.90;0.83;;;9.50;99.90;;;;;;5096233;28;20176;-95
2021/11/07 05:35:38;;;;;;;6.77;1.27;;;9.50;99.90;;;;;;5094046;28;20484;-93
2021/11/07 05:38:04;;;;;;;4.17;1.43;;;9.50;99.90;;;;;;5095812;28;20182;-91
2021/11/07 05:40:29;;;;;;;3.67;2.90;;;9.50;99.90;;;;;;5075202;28;20183;-88
2021/11/07 05:42:55;;;;;;;4.27;1.40;;;9.50;99.90;;;;;;5084369;28;20171;-95
2021/11/07 05:45:20;;;;;;;6.93;2.50;;;9.40;99.90;;;;;;5065399;28;20208;-93
2021/11/07 05:47:48;;;;;;;3.73;1.90;;;9.50;99.90;;;;;;5076916;28;20179;-94
2021/11/07 05:50:15;;;;;;;4.90;2.50;;;9.60;99.90;;;;;;5084727;28;20219;-87
2021/11/07 05:52:42;;;;;;;3.13;1.80;;;9.60;99.90;;;;;;5090661;28;20414;-95
2021/11/07 05:55:09;;;;;;;4.67;2.37;;;9.70;99.90;;;;;;5091020;28;20402;-94
2021/11/07 05:57:34;;;;;;;4.57;1.93;;;9.60;99.90;;;;;;5083610;28;20412;-96
2021/11/07 06:00:00;;;;;;;4.80;2.50;;;9.50;99.90;;;;;;5087600;28;20408;-94
2021/11/07 06:02:26;;;;;;;3.87;1.80;;;9.40;99.90;;;;;;5080956;28;20176;-94
2021/11/07 06:04:51;;;;;;;2.73;1.77;;;9.40;99.90;;;;;;5078642;28;20331;-93
2021/11/07 06:07:18;;;;;;;9.10;2.10;;;9.50;99.90;;;;;;5078329;28;20226;-87
2021/11/07 06:09:43;;;;;;;6.13;2.00;;;9.60;99.90;;;;;;5076905;28;20182;-94
2021/11/07 06:12:10;;;;;;;8.30;1.60;;;9.60;99.90;;;;;;5080055;28;20423;-96
2021/11/07 06:14:36;;;;;;;5.97;1.50;;;9.60;99.90;;;;;;5084781;28;20190;-95
2021/11/07 06:17:02;;;;;;;6.73;1.70;;;9.60;99.90;;;;;;5087084;28;20414;-96
2021/11/07 06:19:28;;;;;;;6.83;1.83;;;9.50;99.90;;;;;;5091242;28;20174;-94
2021/11/07 06:21:54;;;;;;;7.23;2.80;;;9.50;99.90;;;;;;5086915;28;20490;-92
2021/11/07 06:24:25;;;;;;;8.30;1.50;;;9.50;99.90;;;;;;5076069;28;20321;-94
2021/11/07 06:26:53;;;;;;;7.03;1.23;;;9.60;99.90;;;;;;5075412;28;20457;-81
2021/11/07 06:29:20;;;;;;;6.93;2.50;;;9.60;99.90;;;;;;5077800;28;20897;-94
2021/11/07 06:31:46;;;;;;;8.77;1.87;;;9.50;99.90;;;;;;5078232;28;20804;-95
2021/11/07 06:34:12;;;;;;;5.33;1.50;;;9.50;99.90;;;;;;5074487;28;20404;-93
2021/11/07 06:36:37;;;;;;;3.83;0.97;;;9.50;99.90;;;;;;5076626;28;20417;-95
2021/11/07 06:39:03;;;;;;;5.63;1.97;;;9.50;99.90;;;;;;5085354;28;20206;-92
2021/11/07 06:41:29;;;;;;;7.70;1.93;;;9.40;99.90;;;;;;5085515;28;20221;-94
2021/11/07 06:43:55;;;;;;;5.50;1.10;;;9.40;99.90;;;;;;5093457;28;20414;-84
2021/11/07 06:46:22;;;;;;;6.90;1.20;;;9.40;99.90;;;;;;5100390;22;20226;-93
2021/11/07 06:48:49;;;;;;;4.10;1.33;;;9.40;99.90;;;;;;5088655;28;20239;-94
2021/11/07 06:51:16;;;;;;;10.50;2.20;;;9.50;99.90;;;;;;5091782;28;20445;-94
2021/11/07 06:53:42;;;;;;;10.80;1.03;;;9.50;99.90;;;;;;5091146;28;20422;-95
2021/11/07 06:58:33;;;;;;;7.60;1.10;;;9.50;99.90;;;;;;5105180;22;20487;-82
2021/11/07 07:00:58;;;;;;;8.07;1.80;;;9.40;99.90;;;;;;5089444;23;20232;-94
2021/11/07 07:05:57;;;;;;;7.17;1.00;;;9.30;99.90;;;;;;5049281;28;20229;-94
2021/11/07 07:08:27;;;;;;;6.80;0.80;;;9.30;99.90;;;;;;5039643;28;20504;-78
2021/11/07 07:11:00;;;;;;;5.20;1.57;;;9.30;99.90;;;;;;5056501;28;20197;-96
2021/11/07 07:13:30;;;;;;;6.33;1.50;;;9.30;99.90;;;;;;5047551;28;20407;-95
2021/11/07 07:16:11;;;;;;;9.47;1.63;;;9.30;99.90;;;;;;5050654;28;20760;-85
2021/11/07 07:19:05;;;;;;;8.07;1.07;;;9.30;99.90;;;;;;5042145;28;20423;-96
2021/11/07 07:34:42;;;;;;;7.07;1.23;;;9.20;99.90;;;;;;5054179;28;20408;-93
2021/11/07 07:37:07;;;;;;;4.60;0.60;;;9.20;99.90;;;;;;5054348;28;20424;-91
2021/11/07 07:39:33;;;;;;;5.23;0.80;;;9.30;99.90;;;;;;5054214;28;20470;-95
2021/11/07 07:41:59;;;;;;;5.40;1.37;;;9.40;99.90;;;;;;5052809;28;20173;-95
2021/11/07 07:44:24;;;;;;;6.07;1.50;;;9.50;99.90;;;;;;5069738;28;20179;-85
2021/11/07 07:46:50;;;;;;;7.27;1.27;;;9.60;99.90;;;;;;5075588;28;20212;-91
2021/11/07 07:49:17;;;;;;;5.40;0.97;;;9.60;99.90;;;;;;5079799;22;20332;-92
2021/11/07 07:51:45;;;;;;;15.80;1.27;;;9.70;99.90;;;;;;5074637;28;20216;-95
2021/11/07 07:54:11;;;;;;;12.83;1.10;;;9.60;99.90;;;;;;5072179;28;20407;-88
2021/11/07 07:56:37;;;;;;;10.27;1.63;;;9.70;99.90;;;;;;5069708;28;20412;-95
2021/11/07 07:59:05;;;;;;;11.73;1.40;;;9.80;99.90;;;;;;5066007;28;20823;-79
2021/11/07 08:01:37;;;;;;;6.73;0.70;;;9.90;99.90;;;;;;5063004;28;20179;-92
2021/11/07 08:04:03;;;;;;;2.53;0.63;;;9.90;99.90;;;;;;5067070;28;20443;-95
2021/11/07 08:06:29;;;;;;;4.43;0.50;;;9.90;99.90;;;;;;5062984;28;20479;-91
2021/11/07 08:08:55;;;;;;;6.03;0.77;;;9.90;99.90;;;;;;5067935;28;20517;-95
2021/11/07 08:11:22;;;;;;;7.73;1.27;;;9.90;99.90;;;;;;5072708;28;20438;-82
2021/11/07 08:13:50;;;;;;;5.63;1.33;;;9.80;99.90;;;;;;5071549;28;20168;-92
2021/11/07 08:16:17;;;;;;;10.47;1.00;;;9.80;99.90;;;;;;5070135;28;20442;-88
2021/11/07 08:18:43;;;;;;;4.33;0.83;;;9.90;99.90;;;;;;5061423;28;20473;-92
2021/11/07 08:21:12;;;;;;;7.53;0.93;;;9.90;99.90;;;;;;5060171;28;20420;-94
2021/11/07 08:23:38;;;;;;;7.10;1.30;;;10.10;99.90;;;;;;5058810;28;20911;-92
2021/11/07 08:26:05;;;;;;;6.33;0.80;;;10.30;99.90;;;;;;5060844;28;20459;-91
2021/11/07 08:28:36;;;;;;;6.77;0.90;;;10.90;99.90;;;;;;5057258;28;20252;-94
2021/11/07 08:31:07;;;;;;;6.13;1.57;;;11.60;99.90;;;;;;5056857;28;20454;-95
2021/11/07 08:33:35;;;;;;;8.10;1.50;;;12.20;99.90;;;;;;5057809;28;20742;-94
2021/11/07 08:36:08;;;;;;;9.70;1.33;;;12.00;99.90;;;;;;5060011;28;20818;-94
2021/11/07 08:38:41;;;;;;;5.63;0.77;;;11.90;99.90;;;;;;5059480;28;20798;-86
2021/11/07 08:41:08;;;;;;;7.40;1.20;;;11.10;99.90;;;;;;5057512;28;20492;-91
2021/11/07 08:54:33;;;;;;;5.27;1.10;;;12.40;99.90;;;;;;5084703;28;20387;-94
2021/11/07 09:03:15;;;;;;;9.70;1.33;;;12.70;99.90;;;;;;5088072;28;20422;-89
2021/11/07 09:05:23;;;;;;;6.10;1.57;;;12.90;99.90;;;;;;5079334;28;20490;-90
2021/11/07 09:10:35;;;;;;;7.77;1.20;;;12.50;99.90;;;;;;5040809;28;20404;-96
2021/11/07 09:13:06;;;;;;;5.87;2.50;;;12.20;99.90;;;;;;5057832;28;20424;-92
2021/11/07 09:15:34;;;;;;;7.73;1.30;;;12.50;99.90;;;;;;5051865;28;20904;-91
2021/11/07 09:18:00;;;;;;;4.00;0.63;;;14.00;99.90;;;;;;5047929;28;20417;-87
2021/11/07 09:20:38;;;;;;;8.00;1.10;;;14.70;99.90;;;;;;5062121;28;20555;-90
2021/11/07 09:23:09;;;;;;;8.57;1.70;;;13.50;99.90;;;;;;5048846;28;20449;-88
2021/11/07 09:25:46;;;;;;;8.30;1.30;;;13.20;99.90;;;;;;5056684;28;20465;-92
2021/11/07 09:28:26;;;;;;;10.60;2.43;;;13.80;99.90;;;;;;5053928;28;20436;-88
2021/11/07 09:31:05;;;;;;;3.40;0.60;;;14.50;99.90;;;;;;5054572;28;20406;-87
2021/11/07 09:33:42;;;;;;;11.87;2.00;;;13.70;99.90;;;;;;5054527;28;20423;-92
2021/11/07 09:38:46;;;;;;;5.63;1.60;;;13.70;99.90;;;;;;5055766;28;20465;-92
2021/11/07 09:44:04;;;;;;;9.30;1.80;;;13.10;99.90;;;;;;5012800;28;20508;-91
2021/11/07 09:46:35;;;;;;;6.70;1.60;;;12.50;99.90;;;;;;5040730;28;20478;-91
2021/11/07 09:49:19;;;;;;;9.00;0.97;;;12.30;99.90;;;;;;5057333;28;20458;-92
2021/11/07 09:51:55;;;;;;;6.50;1.23;;;12.30;99.90;;;;;;5039550;28;20437;-85
2021/11/07 09:54:21;;;;;;;7.73;1.40;;;12.00;99.90;;;;;;5034347;28;20758;-88
2021/11/07 09:56:51;;;;;;;12.87;2.07;;;11.80;99.90;;;;;;5011437;28;20429;-91
2021/11/07 09:59:17;;;;;;;6.97;1.07;;;11.40;99.90;;;;;;5033275;28;20421;-88
2021/11/07 10:01:44;;;;;;;8.17;0.90;;;11.70;99.90;;;;;;5032166;28;21156;-88
2021/11/07 10:04:12;;;;;;;5.83;1.27;;;12.40;99.90;;;;;;5014896;28;20430;-88
2021/11/07 10:06:44;;;;;;;11.13;1.23;;;12.50;99.90;;;;;;5014741;28;20844;-86
2021/11/07 10:09:13;;;;;;;8.37;1.43;;;12.90;99.90;;;;;;5013687;28;20456;-85
2021/11/07 10:12:01;;;;;;;7.03;1.40;;;12.10;99.90;;;;;;5031425;28;20633;-89
2021/11/07 10:14:45;;;;;;;6.77;1.27;;;11.90;99.90;;;;;;5031903;28;20412;-87
2021/11/07 10:17:44;;;;;;;10.33;1.30;;;11.60;99.90;;;;;;5031222;28;20435;-86
2021/11/07 10:20:29;;;;;;;6.00;0.63;;;11.30;99.90;;;;;;5029566;28;20434;-87
2021/11/07 10:23:15;;;;;;;9.27;0.63;;;11.30;99.90;;;;;;5012007;28;20521;-87
2021/11/07 10:25:51;;;;;;;6.07;1.00;;;10.90;99.90;;;;;;4997555;28;21082;-88
2021/11/07 10:28:30;;;;;;;7.47;1.00;;;10.60;99.90;;;;;;5015981;28;20792;-85
2021/11/07 10:31:11;;;;;;;9.37;1.73;;;10.60;99.90;;;;;;5014631;28;20969;-87
2021/11/07 10:37:03;;;;;;;8.93;1.07;;;13.30;99.90;;;;;;5016790;28;20409;-87
2021/11/07 10:44:54;;;;;;;8.80;1.40;;;16.10;99.90;;;;;;5018653;28;20414;-93
2021/11/07 10:52:48;;;;;;;5.50;1.03;;;17.10;99.90;;;;;;5055923;28;20408;-90
2021/11/07 10:55:20;;;;;;;3.83;0.87;;;16.80;99.90;;;;;;5055882;28;20409;-91
2021/11/07 10:57:48;;;;;;;4.90;1.10;;;16.70;99.90;;;;;;5055715;28;20172;-89
2021/11/07 11:00:14;;;;;;;6.93;1.33;;;16.80;99.90;;;;;;5055669;28;20773;-89
2021/11/07 11:02:47;;;;;;;5.93;1.30;;;16.70;99.90;;;;;;5037758;28;20426;-90
2021/11/07 11:05:19;;;;;;;8.33;1.40;;;17.00;99.90;;;;;;5037240;28;20221;-92
2021/11/07 11:08:12;;;;;;;6.77;1.87;;;15.90;99.90;;;;;;5055703;28;20865;-88
2021/11/07 11:10:57;;;;;;;7.80;1.10;;;14.60;99.90;;;;;;5055590;28;20408;-90
2021/11/07 11:13:52;;;;;;;10.10;1.60;;;14.00;99.90;;;;;;5038138;28;20433;-84
2021/11/07 11:24:42;;;;;;;6.73;1.27;;;13.80;99.90;;;;;;5055705;28;20410;-87
2021/11/07 11:30:03;;;;;;;5.47;1.13;;;16.10;99.90;;;;;;5056333;28;20409;-92
2021/11/07 11:32:47;;;;;;;6.90;1.53;;;17.00;99.50;;;;;;5056648;28;20419;-84
2021/11/07 11:35:24;;;;;;;8.67;1.93;;;17.80;97.70;;;;;;5056395;28;20412;-84
2021/11/07 11:38:00;;;;;;;7.53;1.43;;;17.30;97.90;;;;;;5069339;28;20564;-87
2021/11/07 11:40:48;;;;;;;3.73;0.80;;;16.40;96.20;;;;;;5052553;28;20430;-89
2021/11/07 11:43:22;;;;;;;4.93;0.70;;;15.10;99.90;;;;;;5036816;28;20612;-88
2021/11/07 11:46:01;;;;;;;5.17;1.20;;;13.50;99.90;;;;;;5036452;28;20471;-87
2021/11/07 11:51:47;;;;;;;8.90;1.20;;;12.50;99.90;;;;;;5034966;28;20437;-85
2021/11/07 12:00:25;;;;;;;6.97;1.00;;;11.50;99.90;;;;;;5035534;28;20478;-92
2021/11/07 12:05:49;;;;;;;5.03;1.40;;;13.20;99.90;;;;;;5040821;28;20555;-90
2021/11/07 12:11:39;;;;;;;5.40;1.20;;;13.80;99.90;;;;;;5020812;28;20430;-87
2021/11/07 12:14:15;;;;;;;7.67;1.43;;;16.20;99.90;;;;;;5053872;28;20870;-84
2021/11/07 12:16:44;;;;;;;4.10;1.20;;;16.90;99.90;;;;;;5053625;28;20517;-88
2021/11/07 12:19:12;;;;;;;3.53;0.90;;;17.10;99.90;;;;;;5054473;28;20924;-88
2021/11/07 12:22:00;;;;;;;4.50;0.80;;;17.70;97.90;;;;;;5054416;28;20447;-87
2021/11/07 12:24:32;;;;;;;6.17;0.60;;;15.60;99.90;;;;;;5054145;28;20462;-89
2021/11/07 12:27:16;;;;;;;3.30;0.80;;;14.10;99.90;;;;;;5053017;28;20850;-88
2021/11/07 12:29:43;;;;;;;7.90;0.73;;;13.20;99.90;;;;;;5054371;28;20967;-91
2021/11/07 12:32:11;;;;;;;5.13;0.53;;;13.10;99.90;;;;;;5054802;28;20501;-88
2021/11/07 12:40:48;;;;;;;9.77;1.10;;;13.40;99.90;;;;;;5053737;28;20910;-87
2021/11/07 12:43:39;;;;;;;11.03;1.53;;;13.40;99.90;;;;;;5054022;28;20454;-89
2021/11/07 12:46:50;;;;;;;5.63;0.67;;;13.40;99.90;;;;;;5053925;28;20481;-88
2021/11/07 12:49:16;;;;;;;5.87;1.37;;;13.60;99.90;;;;;;5053031;28;20431;-87
2021/11/07 12:51:43;;;;;;;7.87;1.23;;;13.30;99.90;;;;;;5053048;28;20426;-89
2021/11/07 12:54:24;;;;;;;11.33;2.30;;;13.30;99.90;;;;;;5052722;28;20406;-85
2021/11/07 12:57:11;;;;;;;7.80;1.00;;;13.20;99.90;;;;;;5034099;28;20461;-84
2021/11/07 12:59:43;;;;;;;9.67;1.83;;;12.90;99.90;;;;;;5053098;28;20486;-87
2021/11/07 13:02:17;;;;;;;9.07;1.40;;;12.80;99.90;;;;;;5052702;28;20424;-85
2021/11/07 13:04:57;;;;;;;172.83;132.30;;;12.90;99.90;;;;;;5052937;28;20768;-88
2021/11/07 13:07:39;;;;;;;6.83;1.70;;;12.80;99.90;;;;;;5035355;28;20436;-89
2021/11/07 13:10:09;;;;;;;9.07;1.60;;;12.40;99.90;;;;;;5053039;28;20419;-87
2021/11/07 13:12:45;;;;;;;8.20;1.60;;;12.20;99.90;;;;;;5054160;28;20827;-89
2021/11/07 13:15:30;;;;;;;9.03;2.30;;;11.90;99.90;;;;;;5052781;28;20769;-89
2021/11/07 13:27:05;;;;;;;5.90;1.00;;;11.10;99.90;;;;;;5054132;28;20470;-90
2021/11/07 13:32:37;;;;;;;10.00;1.30;;;10.90;99.90;;;;;;5054054;28;20430;-90
2021/11/07 13:35:06;;;;;;;6.73;1.00;;;10.60;99.90;;;;;;5053316;28;20531;-91
2021/11/07 13:37:41;;;;;;;10.80;1.93;;;10.50;99.90;;;;;;5053974;28;20495;-90
2021/11/07 13:40:27;;;;;;;5.50;0.60;;;10.60;99.90;;;;;;5053469;28;20401;-87
2021/11/07 13:43:03;;;;;;;6.10;0.77;;;10.60;99.90;;;;;;5036115;28;20759;-90
2021/11/07 13:45:31;;;;;;;10.20;2.17;;;10.70;99.90;;;;;;5053447;28;20509;-90
2021/11/07 13:48:00;;;;;;;11.53;1.67;;;10.90;99.90;;;;;;5035496;28;20449;-84
2021/11/07 13:50:32;;;;;;;10.00;1.40;;;11.00;99.90;;;;;;5035016;28;21012;-85
2021/11/07 13:52:59;;;;;;;11.00;1.23;;;11.00;99.90;;;;;;5035921;28;20436;-91
2021/11/07 13:55:32;;;;;;;8.50;1.27;;;10.80;99.90;;;;;;5053981;28;20976;-88
2021/11/07 13:58:13;;;;;;;10.97;1.77;;;10.60;99.90;;;;;;5036224;28;20852;-85
2021/11/07 14:00:40;;;;;;;8.50;1.50;;;10.50;99.90;;;;;;5052840;28;20417;-93
2021/11/07 14:03:15;;;;;;;11.20;1.37;;;10.40;99.90;;;;;;5053235;28;20413;-86
2021/11/07 14:05:57;;;;;;;12.33;1.70;;;10.40;99.90;;;;;;5053009;28;20891;-93
2021/11/07 14:08:23;;;;;;;6.87;1.17;;;10.40;99.90;;;;;;5053242;28;20408;-89
2021/11/07 14:10:51;;;;;;;10.17;1.90;;;10.20;99.90;;;;;;5052953;28;20415;-93
2021/11/07 14:13:18;;;;;;;13.83;2.63;;;10.20;99.90;;;;;;5053285;28;20423;-87
2021/11/07 14:15:48;;;;;;;10.47;2.17;;;10.10;99.90;;;;;;5053362;28;20484;-90
2021/11/07 14:18:24;;;;;;;9.10;1.90;;;10.00;99.90;;;;;;5053456;28;20423;-85
2021/11/07 14:20:51;;;;;;;9.43;1.80;;;10.00;99.90;;;;;;5053657;28;20396;-88
2021/11/07 14:26:20;;;;;;;7.30;1.27;;;9.90;99.90;;;;;;5053163;28;20451;-87
2021/11/07 14:34:33;;;;;;;6.80;0.80;;;9.80;99.90;;;;;;5052203;28;20420;-95
2021/11/07 14:37:09;;;;;;;7.70;0.97;;;9.80;99.90;;;;;;5036934;28;20510;-94
2021/11/07 14:42:44;;;;;;;7.50;1.13;;;9.80;99.90;;;;;;5053539;28;20423;-89
2021/11/07 14:45:15;;;;;;;8.37;1.27;;;9.70;99.90;;;;;;5052441;28;20422;-90
2021/11/07 14:48:37;;;;;;;7.67;1.53;;;9.60;99.90;;;;;;5053358;28;20399;-91
2021/11/07 14:59:45;;;;;;;9.10;1.60;;;9.50;99.90;;;;;;5038635;28;20469;-94
2021/11/07 15:02:45;;;;;;;6.73;1.27;;;9.50;99.90;;;;;;5035756;28;20430;-95
2021/11/07 15:05:27;;;;;;;10.93;2.50;;;9.50;99.90;;;;;;5037658;28;20417;-88
2021/11/07 15:08:25;;;;;;;9.50;2.23;;;9.50;99.90;;;;;;5030467;28;20424;-94
2021/11/07 15:14:05;;;;;;;12.00;1.60;;;9.50;99.90;;;;;;5052927;28;20452;-93
2021/11/07 15:19:20;;;;;;;5.83;1.27;;;9.50;99.90;;;;;;5055555;28;20424;-91
2021/11/07 15:21:57;;;;;;;12.13;2.00;;;9.50;99.90;;;;;;5053969;28;20417;-94
2021/11/07 15:24:35;;;;;;;10.33;1.23;;;9.40;99.90;;;;;;5040315;28;20435;-91
2021/11/07 15:27:01;;;;;;;8.67;2.23;;;9.40;99.90;;;;;;5055739;28;20466;-87
2021/11/07 15:29:35;;;;;;;10.43;1.40;;;9.40;99.90;;;;;;5040385;28;20920;-90
2021/11/07 15:32:10;;;;;;;7.00;1.57;;;9.40;99.90;;;;;;5047786;28;20442;-89
2021/11/07 15:34:39;;;;;;;12.27;1.37;;;9.30;99.90;;;;;;5054955;28;20527;-91
2021/11/07 15:37:08;;;;;;;14.33;3.10;;;9.20;99.90;;;;;;5046270;28;20904;-90
2021/11/07 15:39:34;;;;;;;10.10;1.30;;;9.30;99.90;;;;;;5056114;28;20502;-93
2021/11/07 15:42:18;;;;;;;7.70;1.27;;;9.20;99.90;;;;;;5056678;28;20416;-90
2021/11/07 15:44:50;;;;;;;7.20;1.20;;;9.30;99.90;;;;;;5056135;28;20430;-91
2021/11/07 15:47:24;;;;;;;7.10;1.80;;;9.30;99.90;;;;;;5043113;28;20431;-92
2021/11/07 15:49:56;;;;;;;10.83;1.37;;;9.30;99.90;;;;;;5046423;28;20486;-94
2021/11/07 15:52:46;;;;;;;5.57;1.00;;;9.20;99.90;;;;;;5056803;28;20427;-96
2021/11/07 16:00:27;;;;;;;9.07;1.10;;;9.10;99.90;;;;;;5056842;28;20165;-91